Anadarko, Texas
Current Conditions -  °F | °C
As of 9:35 AM on Sunday 21 Dec 2014 (Local Time) from KRFI Reporting Station
Overcast Overcast  
Wind Chill:   Ceiling: 400
Heat Index:   Visibility: 7mi
Dew Point:   Wind: 3mph
Humidity: 100%   Direction: 150°SSE
Pressure: 30.15"   Gusts: NA
Location:  31.9447°N, 94.855°W
Report Text: KRFI 211535Z AUTO 15003KT 7SM BKN004 OVC026 06/06 A3015 RMK AO2 T00610061
Loading
Personal Weather Stations






























Interactive Weather Map New forecast layout! Learn more

10-Day Weather Forecast

Advertisements
Track Severe Weather on mobile